createdAt,value
2017-09-01T00:00:46.488Z,85.50
2017-09-01T00:03:13.949Z,85.70
2017-09-01T00:05:41.400Z,86.30
2017-09-01T00:08:08.868Z,87.40
2017-09-01T00:10:36.333Z,85.20
2017-09-01T00:13:03.778Z,86.70
2017-09-01T00:15:31.249Z,86.50
2017-09-01T00:17:58.692Z,88.10
2017-09-01T00:20:26.145Z,87.90
2017-09-01T00:22:54.378Z,85.80
2017-09-01T00:25:21.836Z,87.90
2017-09-01T00:27:49.293Z,87.10
2017-09-01T00:30:16.752Z,86.30
2017-09-01T00:32:44.208Z,86.00
2017-09-01T00:35:11.662Z,85.40
2017-09-01T00:37:39.100Z,87.00
2017-09-01T00:40:06.578Z,87.20
2017-09-01T00:42:34.017Z,87.50
2017-09-01T00:45:01.465Z,86.70
2017-09-01T00:47:28.908Z,88.00
2017-09-01T00:49:56.366Z,85.30
2017-09-01T00:52:23.809Z,86.60
2017-09-01T00:54:51.252Z,86.30
2017-09-01T00:57:18.721Z,86.20
2017-09-01T00:59:46.152Z,85.60
2017-09-01T01:02:13.641Z,86.50
2017-09-01T01:04:41.148Z,86.30
2017-09-01T01:07:08.605Z,86.90
2017-09-01T01:09:36.045Z,87.70
2017-09-01T01:12:03.500Z,85.90
2017-09-01T01:14:30.945Z,85.00
2017-09-01T01:16:58.393Z,85.40
2017-09-01T01:19:25.838Z,86.20
2017-09-01T01:21:53.288Z,86.90
2017-09-01T01:24:20.733Z,87.00
2017-09-01T01:26:48.213Z,87.00
2017-09-01T01:29:15.676Z,86.30
2017-09-01T01:31:43.104Z,85.80
2017-09-01T01:34:10.613Z,86.50
2017-09-01T01:36:38.049Z,86.60
2017-09-01T01:39:05.501Z,87.00
2017-09-01T01:41:32.947Z,87.90
2017-09-01T01:44:00.397Z,88.00
2017-09-01T01:46:27.845Z,87.70
2017-09-01T01:48:55.306Z,86.70
2017-09-01T01:51:22.758Z,87.00
2017-09-01T01:53:50.217Z,88.70
2017-09-01T01:56:17.661Z,88.60
2017-09-01T01:58:45.124Z,88.40
2017-09-01T02:01:12.582Z,87.60
2017-09-01T02:03:40.028Z,87.60
2017-09-01T02:06:07.601Z,87.10
2017-09-01T02:08:35.058Z,88.60
2017-09-01T02:11:02.517Z,87.50
2017-09-01T02:13:29.960Z,88.40
2017-09-01T02:15:57.413Z,87.90
2017-09-01T02:18:24.862Z,87.70
2017-09-01T02:20:52.378Z,87.90
2017-09-01T02:23:19.813Z,88.00
2017-09-01T02:25:47.268Z,89.40
2017-09-01T02:28:14.704Z,88.90
2017-09-01T02:30:42.169Z,88.50
2017-09-01T02:33:09.625Z,88.60
2017-09-01T02:35:37.096Z,89.70
2017-09-01T02:38:04.536Z,90.10
2017-09-01T02:40:31.988Z,88.50
2017-09-01T02:42:59.444Z,88.40
2017-09-01T02:45:26.893Z,88.50
2017-09-01T02:47:54.350Z,89.40
2017-09-01T02:50:21.798Z,89.30
2017-09-01T02:52:49.257Z,89.70
2017-09-01T02:55:16.778Z,90.00
2017-09-01T02:57:44.220Z,90.30
2017-09-01T03:00:11.652Z,90.00
2017-09-01T03:02:39.113Z,89.70
2017-09-01T03:05:06.556Z,87.60
2017-09-01T03:07:34.000Z,88.60
2017-09-01T03:10:01.460Z,89.40
2017-09-01T03:12:28.916Z,88.00
2017-09-01T03:14:56.373Z,88.20
2017-09-01T03:17:23.825Z,87.60
2017-09-01T03:19:51.283Z,88.80
2017-09-01T03:22:18.725Z,88.60
2017-09-01T03:24:46.184Z,87.20
2017-09-01T03:27:13.636Z,87.60
2017-09-01T03:29:41.081Z,87.10
2017-09-01T03:32:08.520Z,88.20
2017-09-01T03:34:36.030Z,89.20
2017-09-01T03:37:03.512Z,89.30
2017-09-01T03:39:30.957Z,89.00
2017-09-01T03:41:58.412Z,88.00
2017-09-01T03:44:25.868Z,88.70
2017-09-01T03:46:53.329Z,87.70
2017-09-01T03:49:20.770Z,87.80
2017-09-01T03:51:48.227Z,89.00
2017-09-01T03:54:15.666Z,86.30
2017-09-01T03:56:43.120Z,87.10
2017-09-01T03:59:10.552Z,85.20
2017-09-01T04:01:38.341Z,85.40
2017-09-01T04:04:05.774Z,87.00
2017-09-01T04:06:33.216Z,88.80
2017-09-01T04:09:00.670Z,89.40
2017-09-01T04:11:28.123Z,88.20
2017-09-01T04:13:55.593Z,87.30
2017-09-01T04:16:23.036Z,88.90
2017-09-01T04:18:50.488Z,89.20
2017-09-01T04:21:17.940Z,89.30
2017-09-01T04:23:45.389Z,88.90
2017-09-01T04:26:12.833Z,89.00
2017-09-01T04:28:40.620Z,87.70
2017-09-01T04:31:08.062Z,87.00
2017-09-01T04:33:35.520Z,86.50
2017-09-01T04:36:02.966Z,87.50
2017-09-01T04:38:30.796Z,87.10
2017-09-01T04:40:58.241Z,86.70
2017-09-01T04:43:25.737Z,86.10
2017-09-01T04:45:53.322Z,86.70
2017-09-01T04:48:20.793Z,86.90
2017-09-01T04:50:48.244Z,87.60
2017-09-01T04:53:15.689Z,85.60
2017-09-01T04:55:43.156Z,85.90
2017-09-01T04:58:10.616Z,84.00
2017-09-01T05:00:38.069Z,84.80
2017-09-01T05:03:05.500Z,85.60
2017-09-01T05:05:32.984Z,86.30
2017-09-01T05:08:00.433Z,87.10
2017-09-01T05:10:27.889Z,86.30
2017-09-01T05:12:55.345Z,85.50
2017-09-01T05:15:22.792Z,86.20
2017-09-01T05:17:50.260Z,86.20
2017-09-01T05:20:17.696Z,86.70
2017-09-01T05:22:45.141Z,87.30
2017-09-01T05:25:12.586Z,85.50
2017-09-01T05:27:40.044Z,84.20
2017-09-01T05:30:07.472Z,84.30
2017-09-01T05:32:34.932Z,86.90
2017-09-01T05:35:02.365Z,84.70
2017-09-01T05:37:29.824Z,86.30
2017-09-01T05:39:57.276Z,86.00
2017-09-01T05:42:24.743Z,85.30
2017-09-01T05:44:52.177Z,85.40
2017-09-01T05:47:19.617Z,86.00
2017-09-01T05:49:47.072Z,86.00
2017-09-01T05:52:14.520Z,85.50
2017-09-01T05:54:41.965Z,83.50
2017-09-01T05:57:09.397Z,83.70
2017-09-01T05:59:36.840Z,84.50
2017-09-01T06:02:04.272Z,83.20
2017-09-01T06:04:31.829Z,85.40
2017-09-01T06:06:59.260Z,85.40
2017-09-01T06:09:26.717Z,86.90
2017-09-01T06:11:54.162Z,85.90
2017-09-01T06:14:21.620Z,85.80
2017-09-01T06:16:49.061Z,86.20
2017-09-01T06:19:16.500Z,86.10
2017-09-01T06:21:43.948Z,86.40
2017-09-01T06:24:11.396Z,86.60
2017-09-01T06:26:38.844Z,88.10
2017-09-01T06:29:06.297Z,87.10
2017-09-01T06:31:33.752Z,86.10
2017-09-01T06:34:01.210Z,86.50
2017-09-01T06:36:28.664Z,87.10
2017-09-01T06:38:56.116Z,87.20
2017-09-01T06:41:23.576Z,85.70
2017-09-01T06:43:51.037Z,86.50
2017-09-01T06:46:18.497Z,84.80
2017-09-01T06:48:45.949Z,85.50
2017-09-01T06:51:13.405Z,84.40
2017-09-01T06:53:40.864Z,85.80
2017-09-01T06:56:08.304Z,84.70
2017-09-01T06:58:35.892Z,85.90
2017-09-01T07:01:03.336Z,85.50
2017-09-01T07:03:30.788Z,84.40
2017-09-01T07:05:58.249Z,84.60
2017-09-01T07:08:26.512Z,84.70
2017-09-01T07:10:53.956Z,86.20
2017-09-01T07:13:21.413Z,84.50
2017-09-01T07:15:48.858Z,86.70
2017-09-01T07:18:16.315Z,85.80
2017-09-01T07:20:43.773Z,84.50
2017-09-01T07:23:11.230Z,86.40
2017-09-01T07:25:38.684Z,87.20
2017-09-01T07:28:06.124Z,86.20
2017-09-01T07:30:33.581Z,86.60
2017-09-01T07:33:01.009Z,86.20
2017-09-01T07:35:28.460Z,86.30
2017-09-01T07:37:55.906Z,86.20
2017-09-01T07:40:23.361Z,84.70
2017-09-01T07:42:50.811Z,84.30
2017-09-01T07:45:18.283Z,84.80
2017-09-01T07:47:45.753Z,85.30
2017-09-01T07:50:13.206Z,85.20
2017-09-01T07:52:40.646Z,85.30
2017-09-01T07:55:08.101Z,85.00
2017-09-01T07:57:35.562Z,84.30
2017-09-01T08:00:03.000Z,83.80
2017-09-01T08:02:30.444Z,84.30
2017-09-01T08:04:57.892Z,84.60
2017-09-01T08:07:25.332Z,84.50
2017-09-01T08:09:52.824Z,85.20
2017-09-01T08:12:20.269Z,85.50
2017-09-01T08:14:47.723Z,84.00
2017-09-01T08:17:15.174Z,84.10
2017-09-01T08:19:42.617Z,83.80
2017-09-01T08:22:10.060Z,83.60
2017-09-01T08:24:37.539Z,83.10
2017-09-01T08:27:05.005Z,83.20
2017-09-01T08:29:32.444Z,84.20
2017-09-01T08:31:59.881Z,83.60
2017-09-01T08:34:27.321Z,83.60
2017-09-01T08:36:55.443Z,82.40
2017-09-01T08:39:22.884Z,82.20
2017-09-01T08:41:50.321Z,83.10
2017-09-01T08:44:17.774Z,82.80
2017-09-01T08:46:45.209Z,83.60
2017-09-01T08:49:12.676Z,83.10
2017-09-01T08:51:40.111Z,83.90
2017-09-01T08:54:07.564Z,83.10
2017-09-01T08:56:34.994Z,83.10
2017-09-01T08:59:02.436Z,84.60
2017-09-01T09:01:29.872Z,83.50
2017-09-01T09:03:57.328Z,82.20
2017-09-01T09:06:24.790Z,81.80
2017-09-01T09:08:52.257Z,82.70
2017-09-01T09:11:19.702Z,83.60
2017-09-01T09:13:47.141Z,80.40
2017-09-01T09:16:14.588Z,82.20
2017-09-01T09:18:42.039Z,81.90
2017-09-01T09:21:09.484Z,82.60
2017-09-01T09:23:36.921Z,82.90
2017-09-01T09:26:04.376Z,82.70
2017-09-01T09:28:31.806Z,83.70
2017-09-01T09:30:59.257Z,83.00
2017-09-01T09:33:26.716Z,83.70
2017-09-01T09:35:54.160Z,82.90
2017-09-01T09:38:21.597Z,81.40
2017-09-01T09:40:49.065Z,80.90
2017-09-01T09:43:16.505Z,81.20
2017-09-01T09:45:43.982Z,81.90
2017-09-01T09:48:11.435Z,82.30
2017-09-01T09:50:38.878Z,84.30
2017-09-01T09:53:06.321Z,82.70
2017-09-01T09:55:33.764Z,84.90
2017-09-01T09:58:01.209Z,84.90
2017-09-01T10:00:28.641Z,82.70
2017-09-01T10:02:56.084Z,82.70
2017-09-01T10:05:23.529Z,83.70
2017-09-01T10:07:50.991Z,85.50
2017-09-01T10:10:18.438Z,84.30
2017-09-01T10:12:45.887Z,84.80
2017-09-01T10:15:13.341Z,84.00
2017-09-01T10:17:40.782Z,83.60
2017-09-01T10:20:08.233Z,82.30
2017-09-01T10:22:35.753Z,82.20
2017-09-01T10:25:04.053Z,80.40
2017-09-01T10:27:32.331Z,83.00
2017-09-01T10:29:59.764Z,81.50
2017-09-01T10:32:27.246Z,83.50
2017-09-01T10:34:54.700Z,82.70
2017-09-01T10:37:22.156Z,82.90
2017-09-01T10:39:49.598Z,81.00
2017-09-01T10:42:17.034Z,80.90
2017-09-01T10:44:44.566Z,82.60
2017-09-01T10:47:11.992Z,80.80
2017-09-01T10:49:51.341Z,80.00
2017-09-01T10:52:30.705Z,80.50
2017-09-01T10:55:10.117Z,82.30
2017-09-01T11:00:33.026Z,81.30
2017-09-01T11:03:00.453Z,81.70
2017-09-01T11:05:27.896Z,82.40
2017-09-01T11:07:55.368Z,78.70
2017-09-01T11:10:22.800Z,74.60
2017-09-01T11:12:50.285Z,77.20
2017-09-01T11:15:17.730Z,79.30
2017-09-01T11:17:45.180Z,80.50
2017-09-01T11:20:18.321Z,81.50
2017-09-01T11:22:51.541Z,79.00
2017-09-01T11:25:19.017Z,80.40
2017-09-01T11:27:46.509Z,80.10
2017-09-01T11:30:13.954Z,79.20
2017-09-01T11:32:42.221Z,79.70
2017-09-01T11:35:09.664Z,80.40
2017-09-01T11:37:37.122Z,81.40
2017-09-01T11:40:04.557Z,80.20
2017-09-01T11:42:32.025Z,80.30
2017-09-01T11:44:59.475Z,80.90
2017-09-01T11:47:27.818Z,82.20
2017-09-01T11:49:55.258Z,80.70
2017-09-01T11:52:22.700Z,78.90
2017-09-01T11:54:50.225Z,80.00
2017-09-01T11:57:17.678Z,80.10
2017-09-01T11:59:45.105Z,81.40
2017-09-01T12:02:12.540Z,81.00
2017-09-01T12:04:40.050Z,78.30
2017-09-01T12:07:07.484Z,78.30
2017-09-01T12:09:34.926Z,79.10
2017-09-01T12:12:02.373Z,78.70
2017-09-01T12:14:29.809Z,76.40
2017-09-01T12:16:57.256Z,76.30
2017-09-01T12:19:24.701Z,74.90
2017-09-01T12:21:52.165Z,75.40
2017-09-01T12:24:19.621Z,75.30
2017-09-01T12:26:47.126Z,75.60
2017-09-01T12:29:14.570Z,74.00
2017-09-01T12:31:42.009Z,73.60
2017-09-01T12:34:09.476Z,73.50
2017-09-01T12:36:36.912Z,75.00
2017-09-01T12:39:04.353Z,74.90
2017-09-01T12:41:31.815Z,75.00
2017-09-01T12:43:59.637Z,75.20
2017-09-01T12:46:27.119Z,74.00
2017-09-01T12:48:54.557Z,74.40
2017-09-01T12:51:22.008Z,76.50
2017-09-01T12:53:49.438Z,75.60
2017-09-01T12:56:16.895Z,77.60
2017-09-01T12:58:44.326Z,78.90
2017-09-01T13:01:11.772Z,76.30
2017-09-01T13:03:39.216Z,77.20
2017-09-01T13:06:06.641Z,79.60
2017-09-01T13:08:34.205Z,82.60
2017-09-01T13:11:01.636Z,81.70
2017-09-01T13:13:29.085Z,80.90
2017-09-01T13:15:56.530Z,81.30
2017-09-01T13:18:24.004Z,79.10
2017-09-01T13:20:51.514Z,82.50
2017-09-01T13:23:18.971Z,81.70
2017-09-01T13:25:46.424Z,83.00
2017-09-01T13:28:13.884Z,83.00
2017-09-01T13:30:41.329Z,84.50
2017-09-01T13:33:08.748Z,84.70
2017-09-01T13:35:36.189Z,84.30
2017-09-01T13:38:04.162Z,84.00
2017-09-01T13:40:31.631Z,82.00
2017-09-01T13:42:59.138Z,83.90
2017-09-01T13:45:26.593Z,85.20
2017-09-01T13:47:54.025Z,84.50
2017-09-01T13:50:21.468Z,84.60
2017-09-01T13:52:48.900Z,83.10
2017-09-01T13:55:16.354Z,83.80
2017-09-01T13:57:43.784Z,82.30
2017-09-01T14:00:11.253Z,81.00
2017-09-01T14:02:38.709Z,82.20
2017-09-01T14:05:06.181Z,82.30
2017-09-01T14:07:33.614Z,82.80
2017-09-01T14:10:01.059Z,84.70
2017-09-01T14:12:28.521Z,81.00
2017-09-01T14:14:55.973Z,81.30
2017-09-01T14:17:23.457Z,82.90
2017-09-01T14:19:50.891Z,82.60
2017-09-01T14:22:18.346Z,83.10
2017-09-01T14:24:45.787Z,84.40
2017-09-01T14:27:13.226Z,83.30
2017-09-01T14:29:40.662Z,81.10
2017-09-01T14:32:08.157Z,81.70
2017-09-01T14:34:35.605Z,81.40
2017-09-01T14:37:03.056Z,82.80
2017-09-01T14:39:30.549Z,83.10
2017-09-01T14:41:58.857Z,79.30
2017-09-01T14:44:27.216Z,78.10
2017-09-01T14:46:54.661Z,78.30
2017-09-01T14:49:22.111Z,80.40
2017-09-01T14:51:49.549Z,79.00
2017-09-01T14:54:17.028Z,77.90
2017-09-01T14:56:44.564Z,79.20
2017-09-01T14:59:12.011Z,78.70
2017-09-01T15:01:39.477Z,78.90
2017-09-01T15:04:06.921Z,82.60
2017-09-01T15:06:34.349Z,77.80
2017-09-01T15:09:01.801Z,77.70
2017-09-01T15:11:29.240Z,79.30
2017-09-01T15:13:56.691Z,79.40
2017-09-01T15:16:24.133Z,78.20
2017-09-01T15:18:51.615Z,78.30
2017-09-01T15:21:19.937Z,78.80
2017-09-01T15:23:47.397Z,78.70
2017-09-01T15:26:14.828Z,79.40
2017-09-01T15:28:42.268Z,78.50
2017-09-01T15:31:09.713Z,78.10
2017-09-01T15:33:37.534Z,77.40
2017-09-01T15:36:04.970Z,78.40
2017-09-01T15:38:32.409Z,79.10
2017-09-01T15:40:59.852Z,80.30
2017-09-01T15:43:27.305Z,78.90
2017-09-01T15:45:54.760Z,77.90
2017-09-01T15:48:22.208Z,79.30
2017-09-01T15:50:49.664Z,78.70
2017-09-01T15:53:17.113Z,80.20
2017-09-01T15:55:44.602Z,78.80
2017-09-01T15:58:12.060Z,79.50
2017-09-01T16:00:39.534Z,79.10
2017-09-01T16:03:06.992Z,80.00
2017-09-01T16:05:34.436Z,80.00
2017-09-01T16:08:01.905Z,80.70
2017-09-01T16:10:29.344Z,79.60
2017-09-01T16:12:56.806Z,79.30
2017-09-01T16:15:24.262Z,79.80
2017-09-01T16:17:51.728Z,78.90
2017-09-01T16:20:19.184Z,80.10
2017-09-01T16:22:46.628Z,78.30
2017-09-01T16:25:14.152Z,78.70
2017-09-01T16:27:41.611Z,79.30
2017-09-01T16:30:09.053Z,80.90
2017-09-01T16:32:36.481Z,80.40
2017-09-01T16:35:04.120Z,81.40
2017-09-01T16:37:31.681Z,81.60
2017-09-01T16:39:59.121Z,82.20
2017-09-01T16:42:26.571Z,83.50
2017-09-01T16:44:54.014Z,81.30
2017-09-01T16:47:21.450Z,81.50
2017-09-01T16:49:48.892Z,81.80
2017-09-01T16:52:16.333Z,83.00
2017-09-01T16:54:43.777Z,84.10
2017-09-01T16:57:11.232Z,83.20
2017-09-01T16:59:38.733Z,83.00
2017-09-01T17:02:06.165Z,82.80
2017-09-01T17:04:33.617Z,83.60
2017-09-01T17:07:01.126Z,83.30
2017-09-01T17:09:28.741Z,83.50
2017-09-01T17:11:56.179Z,82.40
2017-09-01T17:14:23.662Z,82.70
2017-09-01T17:16:51.108Z,82.80
2017-09-01T17:19:18.552Z,83.90
2017-09-01T17:21:46.004Z,85.40
2017-09-01T17:24:13.460Z,84.00
2017-09-01T17:26:40.987Z,84.80
2017-09-01T17:29:08.430Z,84.60
2017-09-01T17:31:35.877Z,83.40
2017-09-01T17:34:03.309Z,83.50
2017-09-01T17:36:30.766Z,82.30
2017-09-01T17:38:58.196Z,81.40
2017-09-01T17:41:25.653Z,83.00
2017-09-01T17:43:53.093Z,82.30
2017-09-01T17:46:20.557Z,84.30
2017-09-01T17:48:48.045Z,84.20
2017-09-01T17:51:15.484Z,85.00
2017-09-01T17:53:42.942Z,84.20
2017-09-01T17:56:10.368Z,83.20
2017-09-01T17:58:37.820Z,83.80
2017-09-01T18:01:05.275Z,83.00
2017-09-01T18:03:32.700Z,82.40
2017-09-01T18:06:00.141Z,82.20
2017-09-01T18:08:27.580Z,82.20
2017-09-01T18:10:55.049Z,82.60
2017-09-01T18:13:22.525Z,83.00
2017-09-01T18:15:49.953Z,82.50
2017-09-01T18:18:17.424Z,82.90
2017-09-01T18:20:44.864Z,82.30
2017-09-01T18:23:12.352Z,83.10
2017-09-01T18:25:39.790Z,83.60
2017-09-01T18:28:07.230Z,83.90
2017-09-01T18:30:34.725Z,84.20
2017-09-01T18:33:02.165Z,84.80
2017-09-01T18:35:29.605Z,84.90
2017-09-01T18:37:57.177Z,85.40
2017-09-01T18:40:24.612Z,85.60
2017-09-01T18:42:52.053Z,84.80
2017-09-01T18:45:19.558Z,87.20
2017-09-01T18:47:47.005Z,87.20
2017-09-01T18:50:14.444Z,86.70
2017-09-01T18:52:41.905Z,87.40
2017-09-01T18:55:09.365Z,87.60
2017-09-01T18:57:36.916Z,87.80
2017-09-01T19:00:04.557Z,88.20
2017-09-01T19:02:32.002Z,88.30
2017-09-01T19:04:59.437Z,88.00
2017-09-01T19:07:26.872Z,89.20
2017-09-01T19:09:54.308Z,89.30
2017-09-01T19:12:21.760Z,89.60
2017-09-01T19:14:49.205Z,90.10
2017-09-01T19:17:17.090Z,90.10
2017-09-01T19:19:44.546Z,88.70
2017-09-01T19:22:11.996Z,88.80
2017-09-01T19:24:39.544Z,88.50
2017-09-01T19:27:07.012Z,88.80
2017-09-01T19:29:35.328Z,89.80
2017-09-01T19:32:02.753Z,90.00
2017-09-01T19:34:30.202Z,90.20
2017-09-01T19:36:57.685Z,90.10
2017-09-01T19:39:25.129Z,89.40
2017-09-01T19:41:52.568Z,89.80
2017-09-01T19:44:20.021Z,89.10
2017-09-01T19:46:47.461Z,88.90
2017-09-01T19:49:14.906Z,88.30
2017-09-01T19:51:42.336Z,88.30
2017-09-01T19:54:09.792Z,87.90
2017-09-01T19:56:37.233Z,87.10
2017-09-01T19:59:04.665Z,87.20
2017-09-01T20:01:32.108Z,87.50
2017-09-01T20:03:59.551Z,87.00
2017-09-01T20:06:27.012Z,85.80
2017-09-01T20:08:54.445Z,87.00
2017-09-01T20:11:21.889Z,88.10
2017-09-01T20:13:49.427Z,87.10
2017-09-01T20:16:16.889Z,86.40
2017-09-01T20:18:44.389Z,87.50
2017-09-01T20:21:11.888Z,86.60
2017-09-01T20:23:39.337Z,87.30
2017-09-01T20:26:06.788Z,86.20
2017-09-01T20:28:34.237Z,87.70
2017-09-01T20:31:01.685Z,88.90
2017-09-01T20:33:29.144Z,89.50
2017-09-01T20:35:56.589Z,88.30
2017-09-01T20:38:24.055Z,88.30
2017-09-01T20:40:51.498Z,87.60
2017-09-01T20:43:18.956Z,88.40
2017-09-01T20:45:46.397Z,88.30
2017-09-01T20:48:13.854Z,87.20
2017-09-01T20:50:41.288Z,86.10
2017-09-01T20:53:08.751Z,87.80
2017-09-01T20:55:36.188Z,87.60
2017-09-01T20:58:04.209Z,88.50
2017-09-01T21:00:31.797Z,88.10
2017-09-01T21:02:59.328Z,88.40
2017-09-01T21:05:26.788Z,88.50
2017-09-01T21:07:54.235Z,88.70
2017-09-01T21:10:21.673Z,89.00
2017-09-01T21:12:49.119Z,88.70
2017-09-01T21:15:16.589Z,89.90
2017-09-01T21:17:44.033Z,89.50
2017-09-01T21:20:11.485Z,89.30
2017-09-01T21:22:39.000Z,87.60
2017-09-01T21:25:06.455Z,88.10
2017-09-01T21:27:33.895Z,88.70
2017-09-01T21:30:01.365Z,88.50
2017-09-01T21:32:28.809Z,89.50
2017-09-01T21:34:56.248Z,89.30
2017-09-01T21:37:23.702Z,87.60
2017-09-01T21:39:51.140Z,88.20
2017-09-01T21:42:18.588Z,87.80
2017-09-01T21:44:46.110Z,87.50
2017-09-01T21:47:13.809Z,87.90
2017-09-01T21:49:41.260Z,88.70
2017-09-01T21:52:08.720Z,88.30
2017-09-01T21:54:36.165Z,87.80
2017-09-01T21:57:03.652Z,87.90
2017-09-01T21:59:31.104Z,87.00
2017-09-01T22:01:58.536Z,87.50
2017-09-01T22:04:25.995Z,86.30
2017-09-01T22:06:53.441Z,86.40
2017-09-01T22:09:20.893Z,86.90
2017-09-01T22:11:48.349Z,86.60
2017-09-01T22:14:15.803Z,87.10
2017-09-01T22:16:43.265Z,87.20
2017-09-01T22:19:10.703Z,85.90
2017-09-01T22:21:38.150Z,86.00
2017-09-01T22:24:05.609Z,87.10
2017-09-01T22:26:33.062Z,86.30
2017-09-01T22:29:00.520Z,87.40
2017-09-01T22:31:27.977Z,85.90
2017-09-01T22:33:55.445Z,86.20
2017-09-01T22:36:22.894Z,85.70
2017-09-01T22:38:50.333Z,87.50
2017-09-01T22:41:17.833Z,87.00
2017-09-01T22:43:45.281Z,86.40
2017-09-01T22:46:12.741Z,86.70
2017-09-01T22:48:40.194Z,85.70
2017-09-01T22:51:09.592Z,86.40
2017-09-01T22:53:37.055Z,86.50
2017-09-01T22:56:04.517Z,86.50
2017-09-01T22:58:31.972Z,86.20
2017-09-01T23:00:59.429Z,87.00
2017-09-01T23:03:26.876Z,86.70
2017-09-01T23:05:54.320Z,86.30
2017-09-01T23:08:21.774Z,85.20
2017-09-01T23:10:49.230Z,85.50
2017-09-01T23:13:16.689Z,85.70
2017-09-01T23:15:44.211Z,86.10
2017-09-01T23:18:11.653Z,85.40
2017-09-01T23:20:39.093Z,85.10
2017-09-01T23:23:06.573Z,86.00
2017-09-01T23:25:34.048Z,84.80
2017-09-01T23:28:01.512Z,84.70
2017-09-01T23:30:28.945Z,86.20
2017-09-01T23:32:56.392Z,86.40
2017-09-01T23:35:23.853Z,86.50
2017-09-01T23:37:51.293Z,85.30
2017-09-01T23:40:18.768Z,85.40
2017-09-01T23:42:46.272Z,86.20
2017-09-01T23:45:13.733Z,86.40
2017-09-01T23:47:41.188Z,85.40
2017-09-01T23:50:08.644Z,85.80
2017-09-01T23:52:36.095Z,86.00
2017-09-01T23:55:03.573Z,86.20
2017-09-01T23:57:31.157Z,85.40
2017-09-01T23:59:58.612Z,85.00
